ACA973 MWCR-CYYZ
Flight info
| Callsign | ACA973 |
|---|---|
| Flight time | N/A |
| Altitude | 35000 |
| Route | RIKEL2 RIKEL DCT IKBIX Y183 PEAKY DCT DVALL DCT ORL DCT GRIEF DCT LPERD DCT SUSYQ DCT CAE DCT NOOKS DCT DRIVN DCT PERRI Q103 RICCS DCT OXMAN LINNG3 |
| Aircraft | A320/M-SDE3FGHIRWY/LB1 |
Departure
| Time | 2026-04-23 15:20 |
|---|---|
| Airport | Owen Roberts International Airport (MWCR) |
Arrival
| Time | N/A |
|---|---|
| Airport | Toronto Pearson International Airport (CYYZ) |
| Time | Latitude | Longitude | Altitude | Speed | Heading |
|---|---|---|---|---|---|
| 2026-04-23 15:13 | 19.29532 | -81.35693 | 12 ft | 0 kts | 346° |
| 2026-04-23 15:16 | 19.29526 | -81.35692 | 12 ft | 2 kts | 347° |
| 2026-04-23 15:16 | 19.29499 | -81.35686 | 12 ft | 5 kts | 351° |
| 2026-04-23 15:17 | 19.29463 | -81.35678 | 12 ft | 1 kts | 345° |
| 2026-04-23 15:17 | 19.29471 | -81.35683 | 12 ft | 7 kts | 316° |
| 2026-04-23 15:17 | 19.29444 | -81.35777 | 12 ft | 13 kts | 237° |
| 2026-04-23 15:17 | 19.29350 | -81.35806 | 12 ft | 15 kts | 172° |
| 2026-04-23 15:18 | 19.29250 | -81.35910 | 12 ft | 29 kts | 257° |
| 2026-04-23 15:18 | 19.29194 | -81.36166 | 12 ft | 42 kts | 258° |
| 2026-04-23 15:18 | 19.29121 | -81.36457 | 12 ft | 34 kts | 254° |
| 2026-04-23 15:18 | 19.29077 | -81.36643 | 12 ft | 22 kts | 265° |
| 2026-04-23 15:19 | 19.29058 | -81.36740 | 12 ft | 13 kts | 136° |
| 2026-04-23 15:19 | 19.29056 | -81.36709 | 12 ft | 0 kts | 75° |
| 2026-04-23 15:19 | 19.29058 | -81.36700 | 12 ft | 1 kts | 73° |
| 2026-04-23 15:19 | 19.29066 | -81.36674 | 12 ft | 17 kts | 72° |
| 2026-04-23 15:20 | 19.29120 | -81.36462 | 12 ft | 70 kts | 75° |
| 2026-04-23 15:20 | 19.29384 | -81.35358 | 13 ft | 156 kts | 74° |
| 2026-04-23 15:20 | 19.29684 | -81.34167 | 376 ft | 176 kts | 76° |
| 2026-04-23 15:20 | 19.29991 | -81.32799 | 789 ft | 202 kts | 69° |
| 2026-04-23 15:21 | 19.30900 | -81.31651 | 1458 ft | 220 kts | 29° |
| 2026-04-23 15:21 | 19.32440 | -81.31385 | 2225 ft | 240 kts | 357° |
| 2026-04-23 15:21 | 19.34157 | -81.31678 | 2930 ft | 257 kts | 353° |
| 2026-04-23 15:21 | 19.35949 | -81.31793 | 3664 ft | 265 kts | 14° |
| 2026-04-23 15:22 | 19.37689 | -81.31180 | 4704 ft | 264 kts | 26° |
| 2026-04-23 15:22 | 19.39362 | -81.30382 | 5696 ft | 269 kts | 26° |
| 2026-04-23 15:22 | 19.41066 | -81.29567 | 6673 ft | 275 kts | 25° |
| 2026-04-23 15:22 | 19.42827 | -81.28758 | 7689 ft | 278 kts | 24° |
| 2026-04-23 15:23 | 19.44595 | -81.27970 | 8493 ft | 280 kts | 22° |
| 2026-04-23 15:23 | 19.46400 | -81.27184 | 9180 ft | 285 kts | 22° |
| 2026-04-23 15:23 | 19.48241 | -81.26393 | 9914 ft | 288 kts | 21° |
| 2026-04-23 15:23 | 19.50129 | -81.25588 | 10547 ft | 295 kts | 21° |
| 2026-04-23 15:24 | 19.52073 | -81.24764 | 10890 ft | 312 kts | 21° |
| 2026-04-23 15:24 | 19.54154 | -81.23884 | 11197 ft | 330 kts | 21° |
| 2026-04-23 15:24 | 19.56342 | -81.22958 | 11579 ft | 343 kts | 21° |
| 2026-04-23 15:24 | 19.58591 | -81.22007 | 12195 ft | 348 kts | 20° |
| 2026-04-23 15:25 | 19.60825 | -81.21061 | 12850 ft | 351 kts | 20° |
| 2026-04-23 15:25 | 19.63108 | -81.20094 | 13472 ft | 355 kts | 20° |
| 2026-04-23 15:25 | 19.65434 | -81.19109 | 14084 ft | 359 kts | 20° |
| 2026-04-23 15:25 | 19.67751 | -81.18128 | 14671 ft | 363 kts | 20° |
| 2026-04-23 15:26 | 19.70114 | -81.17127 | 15252 ft | 366 kts | 20° |
| 2026-04-23 15:26 | 19.72501 | -81.16115 | 15812 ft | 370 kts | 20° |
| 2026-04-23 15:26 | 19.74897 | -81.15099 | 16358 ft | 374 kts | 20° |
| 2026-04-23 15:26 | 19.77343 | -81.14061 | 16903 ft | 378 kts | 19° |
| 2026-04-23 15:27 | 19.79776 | -81.13030 | 17417 ft | 381 kts | 19° |
| 2026-04-23 15:27 | 19.82244 | -81.11980 | 17929 ft | 385 kts | 19° |
| 2026-04-23 15:27 | 19.84746 | -81.10916 | 18418 ft | 389 kts | 19° |
| 2026-04-23 15:27 | 19.87296 | -81.09831 | 18900 ft | 393 kts | 19° |
| 2026-04-23 15:28 | 19.89844 | -81.08748 | 19363 ft | 397 kts | 19° |
| 2026-04-23 15:28 | 19.92409 | -81.07658 | 19826 ft | 401 kts | 18° |
| 2026-04-23 15:28 | 19.95027 | -81.06545 | 20290 ft | 405 kts | 18° |
| 2026-04-23 15:28 | 19.97659 | -81.05469 | 20752 ft | 407 kts | 14° |
| 2026-04-23 15:29 | 20.00423 | -81.04772 | 21221 ft | 406 kts | 4° |
| 2026-04-23 15:29 | 20.03234 | -81.04552 | 21690 ft | 404 kts | 355° |
| 2026-04-23 15:29 | 20.06044 | -81.04645 | 22155 ft | 406 kts | 353° |
| 2026-04-23 15:29 | 20.08883 | -81.04793 | 22610 ft | 409 kts | 352° |
| 2026-04-23 15:30 | 20.11745 | -81.04947 | 23085 ft | 412 kts | 352° |
| 2026-04-23 15:30 | 20.14632 | -81.05095 | 23558 ft | 415 kts | 352° |
| 2026-04-23 15:30 | 20.17529 | -81.05238 | 23980 ft | 419 kts | 352° |
| 2026-04-23 15:30 | 20.20486 | -81.05382 | 24398 ft | 422 kts | 352° |
| 2026-04-23 15:31 | 20.23424 | -81.05521 | 24814 ft | 426 kts | 352° |
| 2026-04-23 15:31 | 20.26387 | -81.05660 | 25219 ft | 429 kts | 352° |
| 2026-04-23 15:31 | 20.29383 | -81.05800 | 25622 ft | 432 kts | 352° |
| 2026-04-23 15:31 | 20.32408 | -81.05940 | 26016 ft | 436 kts | 352° |
| 2026-04-23 15:32 | 20.35442 | -81.06080 | 26414 ft | 438 kts | 352° |
| 2026-04-23 15:32 | 20.38526 | -81.06223 | 26804 ft | 441 kts | 352° |
| 2026-04-23 15:32 | 20.41602 | -81.06365 | 27163 ft | 444 kts | 352° |
| 2026-04-23 15:32 | 20.44685 | -81.06508 | 27513 ft | 447 kts | 351° |
| 2026-04-23 15:33 | 20.47787 | -81.06652 | 27880 ft | 449 kts | 351° |
| 2026-04-23 15:33 | 20.50923 | -81.06797 | 28212 ft | 451 kts | 351° |
| 2026-04-23 15:33 | 20.54109 | -81.06944 | 28642 ft | 451 kts | 351° |
| 2026-04-23 15:33 | 20.57246 | -81.07088 | 29081 ft | 450 kts | 351° |
| 2026-04-23 15:34 | 20.60342 | -81.07229 | 29480 ft | 450 kts | 351° |
| 2026-04-23 15:34 | 20.63477 | -81.07372 | 29875 ft | 449 kts | 350° |
| 2026-04-23 15:34 | 20.66601 | -81.07516 | 30237 ft | 449 kts | 350° |
| 2026-04-23 15:34 | 20.69736 | -81.07661 | 30610 ft | 448 kts | 350° |
| 2026-04-23 15:35 | 20.72832 | -81.07803 | 30959 ft | 448 kts | 349° |
| 2026-04-23 15:35 | 20.75979 | -81.07949 | 31302 ft | 447 kts | 349° |
| 2026-04-23 15:35 | 20.79083 | -81.08093 | 31631 ft | 446 kts | 349° |
| 2026-04-23 15:35 | 20.82194 | -81.08237 | 31962 ft | 446 kts | 349° |
| 2026-04-23 15:36 | 20.85302 | -81.08382 | 32288 ft | 445 kts | 348° |
| 2026-04-23 15:36 | 20.88379 | -81.08524 | 32621 ft | 444 kts | 348° |
| 2026-04-23 15:36 | 20.91474 | -81.08667 | 32931 ft | 443 kts | 348° |
| 2026-04-23 15:36 | 20.94542 | -81.08811 | 33210 ft | 443 kts | 348° |
| 2026-04-23 15:37 | 20.97643 | -81.08958 | 33515 ft | 443 kts | 347° |
| 2026-04-23 15:37 | 21.00705 | -81.09103 | 33794 ft | 444 kts | 348° |
| 2026-04-23 15:37 | 21.02773 | -81.09201 | 33961 ft | 444 kts | 348° |
| 2026-04-23 15:37 | 21.06891 | -81.09396 | 34254 ft | 446 kts | 348° |
| 2026-04-23 15:38 | 21.10034 | -81.09544 | 34507 ft | 446 kts | 348° |
| 2026-04-23 15:38 | 21.13159 | -81.09688 | 34756 ft | 447 kts | 348° |
| 2026-04-23 15:38 | 21.16261 | -81.09829 | 34967 ft | 447 kts | 348° |
| 2026-04-23 15:39 | 21.22470 | -81.10115 | 35027 ft | 448 kts | 348° |
| 2026-04-23 15:39 | 21.28737 | -81.10405 | 35033 ft | 448 kts | 348° |
| 2026-04-23 15:40 | 21.34946 | -81.10696 | 35032 ft | 448 kts | 348° |
| 2026-04-23 15:40 | 21.41209 | -81.10990 | 35034 ft | 450 kts | 348° |
| 2026-04-23 15:41 | 21.47476 | -81.11283 | 35034 ft | 449 kts | 347° |
| 2026-04-23 15:41 | 21.53742 | -81.11576 | 35030 ft | 449 kts | 347° |
| 2026-04-23 15:42 | 21.59984 | -81.11870 | 35034 ft | 448 kts | 347° |
| 2026-04-23 15:42 | 21.66218 | -81.12161 | 35033 ft | 448 kts | 347° |
| 2026-04-23 15:43 | 21.72445 | -81.12456 | 35035 ft | 448 kts | 347° |
| 2026-04-23 15:43 | 21.78677 | -81.12750 | 35033 ft | 447 kts | 347° |
| 2026-04-23 15:44 | 21.84889 | -81.13043 | 35033 ft | 447 kts | 347° |
| 2026-04-23 15:44 | 21.91133 | -81.13338 | 35037 ft | 448 kts | 347° |
| 2026-04-23 15:45 | 21.97331 | -81.13631 | 35035 ft | 447 kts | 347° |
| 2026-04-23 15:45 | 22.03561 | -81.13925 | 35035 ft | 447 kts | 347° |
| 2026-04-23 15:46 | 22.09795 | -81.14223 | 35042 ft | 448 kts | 347° |
| 2026-04-23 15:46 | 22.16000 | -81.14509 | 35041 ft | 447 kts | 347° |
| 2026-04-23 15:47 | 22.22214 | -81.14799 | 35036 ft | 446 kts | 347° |
| 2026-04-23 15:47 | 22.28449 | -81.15094 | 35040 ft | 446 kts | 347° |
| 2026-04-23 15:48 | 22.34643 | -81.15385 | 35042 ft | 446 kts | 347° |
| 2026-04-23 15:48 | 22.40859 | -81.15684 | 35040 ft | 446 kts | 348° |
| 2026-04-23 15:49 | 22.47041 | -81.15977 | 35043 ft | 445 kts | 348° |
| 2026-04-23 15:49 | 22.53237 | -81.16270 | 35038 ft | 445 kts | 348° |
| 2026-04-23 15:50 | 22.59441 | -81.16569 | 35036 ft | 446 kts | 348° |
| 2026-04-23 15:50 | 22.65656 | -81.16864 | 35041 ft | 445 kts | 348° |
| 2026-04-23 15:51 | 22.71840 | -81.17158 | 35045 ft | 446 kts | 348° |
| 2026-04-23 15:51 | 22.78059 | -81.17457 | 35042 ft | 445 kts | 348° |
| 2026-04-23 15:52 | 22.84210 | -81.17751 | 35040 ft | 444 kts | 348° |
| 2026-04-23 15:52 | 22.90418 | -81.18050 | 35046 ft | 444 kts | 348° |
| 2026-04-23 15:53 | 22.96596 | -81.18346 | 35052 ft | 444 kts | 348° |
| 2026-04-23 15:53 | 23.02759 | -81.18641 | 35041 ft | 444 kts | 348° |
| 2026-04-23 15:54 | 23.08940 | -81.18939 | 35034 ft | 444 kts | 348° |
| 2026-04-23 15:54 | 23.15112 | -81.19231 | 35038 ft | 445 kts | 348° |
| 2026-04-23 15:55 | 23.21214 | -81.19518 | 35045 ft | 443 kts | 348° |
| 2026-04-23 15:55 | 23.27404 | -81.19815 | 35042 ft | 444 kts | 348° |
| 2026-04-23 15:56 | 23.33581 | -81.20112 | 35034 ft | 443 kts | 348° |
| 2026-04-23 15:56 | 23.39742 | -81.20408 | 35035 ft | 443 kts | 348° |
| 2026-04-23 15:57 | 23.45873 | -81.20705 | 35036 ft | 444 kts | 348° |
| 2026-04-23 15:57 | 23.52086 | -81.21006 | 35036 ft | 443 kts | 348° |
| 2026-04-23 15:58 | 23.58240 | -81.21304 | 35037 ft | 442 kts | 348° |
| 2026-04-23 15:58 | 23.64374 | -81.21600 | 35040 ft | 443 kts | 348° |
| 2026-04-23 15:59 | 23.70539 | -81.21897 | 35046 ft | 442 kts | 348° |
| 2026-04-23 15:59 | 23.76706 | -81.22199 | 35046 ft | 441 kts | 348° |
| 2026-04-23 16:00 | 23.82832 | -81.22492 | 35048 ft | 441 kts | 348° |
| 2026-04-23 16:00 | 23.88999 | -81.22794 | 35055 ft | 440 kts | 348° |
| 2026-04-23 16:01 | 23.95110 | -81.23089 | 35057 ft | 441 kts | 348° |
| 2026-04-23 16:01 | 24.01299 | -81.23047 | 35057 ft | 448 kts | 355° |
| 2026-04-23 16:02 | 24.07542 | -81.22288 | 35058 ft | 451 kts | 359° |
| 2026-04-23 16:02 | 24.13796 | -81.21369 | 35062 ft | 452 kts | 359° |
| 2026-04-23 16:03 | 24.20025 | -81.20461 | 35059 ft | 452 kts | 359° |
| 2026-04-23 16:03 | 24.26269 | -81.19557 | 35068 ft | 451 kts | 359° |
| 2026-04-23 16:04 | 24.32490 | -81.18662 | 35063 ft | 450 kts | 359° |
| 2026-04-23 16:04 | 24.38720 | -81.17760 | 35066 ft | 449 kts | 359° |
| 2026-04-23 16:05 | 24.43893 | -81.17014 | 35067 ft | 449 kts | 359° |
| 2026-04-23 16:05 | 24.51142 | -81.15967 | 35068 ft | 449 kts | 359° |
| 2026-04-23 16:06 | 24.57334 | -81.15070 | 35061 ft | 448 kts | 359° |
| 2026-04-23 16:06 | 24.63512 | -81.14127 | 35075 ft | 451 kts | 0° |
| 2026-04-23 16:07 | 24.69725 | -81.13123 | 35080 ft | 450 kts | 0° |
| 2026-04-23 16:07 | 24.75926 | -81.12120 | 35079 ft | 449 kts | 1° |
| 2026-04-23 16:08 | 24.82079 | -81.11128 | 35078 ft | 448 kts | 1° |
| 2026-04-23 16:08 | 24.88240 | -81.10137 | 35072 ft | 446 kts | 1° |
| 2026-04-23 16:09 | 24.94418 | -81.09142 | 35081 ft | 448 kts | 1° |
| 2026-04-23 16:09 | 25.00579 | -81.08148 | 35079 ft | 446 kts | 1° |
| 2026-04-23 16:10 | 25.06739 | -81.07153 | 35077 ft | 446 kts | 1° |
| 2026-04-23 16:10 | 25.12901 | -81.06158 | 35076 ft | 447 kts | 1° |
| 2026-04-23 16:11 | 25.19038 | -81.05164 | 35072 ft | 446 kts | 1° |
| 2026-04-23 16:11 | 25.25180 | -81.04168 | 35076 ft | 445 kts | 1° |
| 2026-04-23 16:12 | 25.31329 | -81.03173 | 35077 ft | 445 kts | 1° |
| 2026-04-23 16:12 | 25.37455 | -81.02176 | 35078 ft | 446 kts | 1° |
| 2026-04-23 16:13 | 25.43584 | -81.01180 | 35076 ft | 446 kts | 1° |
| 2026-04-23 16:13 | 25.52800 | -81.00288 | 35074 ft | 437 kts | 352° |
| 2026-04-23 16:14 | 25.58823 | -81.00659 | 35080 ft | 432 kts | 347° |
| 2026-04-23 16:14 | 25.64794 | -81.01316 | 35079 ft | 432 kts | 347° |
| 2026-04-23 16:15 | 25.70816 | -81.01982 | 35078 ft | 432 kts | 347° |
| 2026-04-23 16:15 | 25.76802 | -81.02636 | 35076 ft | 432 kts | 347° |
| 2026-04-23 16:16 | 25.82737 | -81.03282 | 35076 ft | 430 kts | 347° |
| 2026-04-23 16:16 | 25.88721 | -81.03934 | 35077 ft | 430 kts | 347° |
| 2026-04-23 16:17 | 25.94693 | -81.04587 | 35076 ft | 430 kts | 347° |
| 2026-04-23 16:17 | 26.00628 | -81.05233 | 35078 ft | 430 kts | 347° |
| 2026-04-23 16:18 | 26.06596 | -81.05884 | 35076 ft | 430 kts | 347° |
| 2026-04-23 16:18 | 26.12604 | -81.06538 | 35082 ft | 431 kts | 347° |
| 2026-04-23 16:19 | 26.18558 | -81.07182 | 35080 ft | 430 kts | 347° |
| 2026-04-23 16:19 | 26.24534 | -81.07832 | 35080 ft | 431 kts | 347° |
| 2026-04-23 16:20 | 26.30515 | -81.08485 | 35086 ft | 430 kts | 347° |
| 2026-04-23 16:20 | 26.36453 | -81.09136 | 35083 ft | 430 kts | 347° |
| 2026-04-23 16:21 | 26.42416 | -81.09790 | 35081 ft | 430 kts | 347° |
| 2026-04-23 16:21 | 26.48378 | -81.10445 | 35075 ft | 429 kts | 347° |
| 2026-04-23 16:22 | 26.54314 | -81.11097 | 35068 ft | 428 kts | 347° |
| 2026-04-23 16:22 | 26.60255 | -81.11752 | 35069 ft | 427 kts | 347° |
| 2026-04-23 16:23 | 26.66154 | -81.12403 | 35071 ft | 427 kts | 347° |
| 2026-04-23 16:23 | 26.72088 | -81.13058 | 35068 ft | 427 kts | 347° |
| 2026-04-23 16:24 | 26.78025 | -81.13714 | 35070 ft | 427 kts | 347° |
| 2026-04-23 16:24 | 26.83957 | -81.14370 | 35072 ft | 427 kts | 347° |
| 2026-04-23 16:25 | 26.89839 | -81.15022 | 35073 ft | 426 kts | 347° |
| 2026-04-23 16:25 | 26.95753 | -81.15677 | 35074 ft | 426 kts | 347° |
| 2026-04-23 16:26 | 27.01666 | -81.16335 | 35073 ft | 426 kts | 347° |
| 2026-04-23 16:26 | 27.07587 | -81.16993 | 35072 ft | 426 kts | 347° |
| 2026-04-23 16:27 | 27.13500 | -81.17647 | 35075 ft | 426 kts | 347° |
| 2026-04-23 16:27 | 27.19408 | -81.18299 | 35073 ft | 425 kts | 347° |
| 2026-04-23 16:28 | 27.25329 | -81.18956 | 35072 ft | 426 kts | 347° |
| 2026-04-23 16:28 | 27.31208 | -81.19611 | 35076 ft | 426 kts | 347° |
| 2026-04-23 16:29 | 27.37128 | -81.20270 | 35083 ft | 425 kts | 347° |
| 2026-04-23 16:29 | 27.43048 | -81.20933 | 35087 ft | 425 kts | 348° |
| 2026-04-23 16:30 | 27.48922 | -81.21588 | 35090 ft | 426 kts | 348° |
| 2026-04-23 16:30 | 27.54834 | -81.22251 | 35094 ft | 425 kts | 348° |
| 2026-04-23 16:31 | 27.60719 | -81.22911 | 35095 ft | 425 kts | 348° |
| 2026-04-23 16:31 | 27.66625 | -81.23573 | 35092 ft | 425 kts | 348° |
| 2026-04-23 16:32 | 27.72501 | -81.24234 | 35085 ft | 424 kts | 348° |
| 2026-04-23 16:32 | 27.78390 | -81.24897 | 35084 ft | 425 kts | 348° |
| 2026-04-23 16:33 | 27.84286 | -81.25561 | 35076 ft | 424 kts | 348° |
| 2026-04-23 16:33 | 27.90147 | -81.26221 | 35077 ft | 424 kts | 348° |
| 2026-04-23 16:34 | 27.96029 | -81.26885 | 35077 ft | 425 kts | 348° |
| 2026-04-23 16:34 | 28.01913 | -81.27549 | 35081 ft | 424 kts | 348° |
| 2026-04-23 16:35 | 28.07788 | -81.28213 | 35089 ft | 424 kts | 348° |
| 2026-04-23 16:35 | 28.13685 | -81.28879 | 35100 ft | 425 kts | 348° |
| 2026-04-23 16:36 | 28.19570 | -81.29541 | 35104 ft | 424 kts | 349° |
| 2026-04-23 16:36 | 28.25472 | -81.30210 | 35111 ft | 425 kts | 349° |
| 2026-04-23 16:37 | 28.31321 | -81.30872 | 35115 ft | 425 kts | 349° |
| 2026-04-23 16:37 | 28.37246 | -81.31548 | 35115 ft | 425 kts | 349° |
| 2026-04-23 16:38 | 28.43148 | -81.32220 | 35116 ft | 426 kts | 349° |
| 2026-04-23 16:38 | 28.49059 | -81.32894 | 35118 ft | 426 kts | 349° |
| 2026-04-23 16:39 | 28.54990 | -81.33380 | 35116 ft | 429 kts | 354° |
| 2026-04-23 16:39 | 28.60970 | -81.33253 | 35118 ft | 431 kts | 357° |
| 2026-04-23 16:40 | 28.66950 | -81.33011 | 35119 ft | 430 kts | 357° |
| 2026-04-23 16:40 | 28.72952 | -81.32774 | 35119 ft | 431 kts | 358° |
| 2026-04-23 16:41 | 28.78964 | -81.32538 | 35116 ft | 431 kts | 358° |
| 2026-04-23 16:41 | 28.84944 | -81.32306 | 35118 ft | 432 kts | 358° |
| 2026-04-23 16:42 | 28.90949 | -81.32075 | 35120 ft | 432 kts | 358° |
| 2026-04-23 16:42 | 28.96979 | -81.31841 | 35126 ft | 432 kts | 358° |
| 2026-04-23 16:43 | 29.03004 | -81.31607 | 35131 ft | 431 kts | 358° |
| 2026-04-23 16:43 | 29.08984 | -81.31373 | 35131 ft | 431 kts | 358° |
| 2026-04-23 16:44 | 29.14989 | -81.31137 | 35130 ft | 431 kts | 358° |
| 2026-04-23 16:44 | 29.21016 | -81.30903 | 35127 ft | 431 kts | 358° |
| 2026-04-23 16:45 | 29.26983 | -81.30671 | 35132 ft | 431 kts | 358° |
| 2026-04-23 16:45 | 29.33002 | -81.30437 | 35129 ft | 430 kts | 359° |
| 2026-04-23 16:46 | 29.38960 | -81.30205 | 35133 ft | 428 kts | 359° |
| 2026-04-23 16:46 | 29.44890 | -81.29971 | 35131 ft | 427 kts | 359° |
| 2026-04-23 16:47 | 29.50874 | -81.29736 | 35128 ft | 428 kts | 359° |
| 2026-04-23 16:47 | 29.56805 | -81.29588 | 35132 ft | 427 kts | 358° |
| 2026-04-23 16:48 | 29.62748 | -81.29516 | 35128 ft | 428 kts | 358° |
| 2026-04-23 16:48 | 29.68729 | -81.29439 | 35133 ft | 427 kts | 358° |
| 2026-04-23 16:49 | 29.74646 | -81.29356 | 35134 ft | 427 kts | 358° |
| 2026-04-23 16:49 | 29.80592 | -81.29272 | 35131 ft | 426 kts | 358° |
| 2026-04-23 16:50 | 29.86525 | -81.29186 | 35136 ft | 426 kts | 359° |
| 2026-04-23 16:50 | 29.92474 | -81.29099 | 35138 ft | 427 kts | 359° |
| 2026-04-23 16:51 | 29.98426 | -81.29012 | 35143 ft | 428 kts | 359° |
| 2026-04-23 16:51 | 30.04385 | -81.28925 | 35143 ft | 427 kts | 359° |
| 2026-04-23 16:52 | 30.10321 | -81.28837 | 35143 ft | 426 kts | 359° |
| 2026-04-23 16:52 | 30.16255 | -81.28749 | 35141 ft | 426 kts | 359° |
| 2026-04-23 16:53 | 30.22221 | -81.28661 | 35138 ft | 426 kts | 359° |
| 2026-04-23 16:53 | 30.28143 | -81.28577 | 35138 ft | 427 kts | 359° |
| 2026-04-23 16:54 | 30.34110 | -81.28489 | 35134 ft | 427 kts | 359° |
| 2026-04-23 16:54 | 30.40032 | -81.28402 | 35133 ft | 427 kts | 359° |
| 2026-04-23 16:55 | 30.45992 | -81.28314 | 35136 ft | 427 kts | 359° |
| 2026-04-23 16:55 | 30.51928 | -81.28226 | 35134 ft | 427 kts | 359° |
| 2026-04-23 16:56 | 30.57860 | -81.28140 | 35134 ft | 427 kts | 359° |
| 2026-04-23 16:56 | 30.63832 | -81.27861 | 35136 ft | 427 kts | 2° |
| 2026-04-23 16:57 | 30.69769 | -81.27425 | 35129 ft | 427 kts | 2° |
| 2026-04-23 16:57 | 30.75701 | -81.26990 | 35122 ft | 427 kts | 2° |
| 2026-04-23 16:58 | 30.81600 | -81.26559 | 35125 ft | 427 kts | 2° |
| 2026-04-23 16:58 | 30.87553 | -81.26125 | 35122 ft | 427 kts | 2° |
| 2026-04-23 16:59 | 30.93514 | -81.25691 | 35122 ft | 428 kts | 2° |
| 2026-04-23 16:59 | 30.99442 | -81.25259 | 35123 ft | 428 kts | 2° |
| 2026-04-23 17:00 | 31.05396 | -81.24824 | 35127 ft | 428 kts | 2° |
| 2026-04-23 17:00 | 31.11348 | -81.24389 | 35126 ft | 428 kts | 2° |
| 2026-04-23 17:01 | 31.17284 | -81.23955 | 35125 ft | 427 kts | 2° |
| 2026-04-23 17:01 | 31.23193 | -81.23523 | 35131 ft | 426 kts | 2° |
| 2026-04-23 17:02 | 31.29127 | -81.23087 | 35124 ft | 426 kts | 2° |
| 2026-04-23 17:02 | 31.35063 | -81.22652 | 35119 ft | 426 kts | 2° |
| 2026-04-23 17:03 | 31.40965 | -81.22218 | 35115 ft | 426 kts | 2° |
| 2026-04-23 17:03 | 31.46882 | -81.21783 | 35113 ft | 426 kts | 2° |
| 2026-04-23 17:04 | 31.52814 | -81.21346 | 35110 ft | 426 kts | 2° |
| 2026-04-23 17:04 | 31.58718 | -81.20911 | 35109 ft | 425 kts | 2° |
| 2026-04-23 17:05 | 31.64651 | -81.20472 | 35104 ft | 425 kts | 2° |
| 2026-04-23 17:05 | 31.70532 | -81.20046 | 35107 ft | 424 kts | 2° |
| 2026-04-23 17:06 | 31.76419 | -81.19656 | 35104 ft | 425 kts | 2° |
| 2026-04-23 17:06 | 31.82365 | -81.19263 | 35108 ft | 425 kts | 2° |
| 2026-04-23 17:07 | 31.88257 | -81.18870 | 35106 ft | 425 kts | 2° |
| 2026-04-23 17:07 | 31.94164 | -81.18477 | 35110 ft | 424 kts | 2° |
| 2026-04-23 17:08 | 32.00046 | -81.18082 | 35109 ft | 423 kts | 2° |
| 2026-04-23 17:08 | 32.05918 | -81.17690 | 35109 ft | 423 kts | 2° |
| 2026-04-23 17:09 | 32.11801 | -81.17294 | 35104 ft | 423 kts | 2° |
| 2026-04-23 17:09 | 32.17687 | -81.16900 | 35108 ft | 423 kts | 2° |
| 2026-04-23 17:10 | 32.23535 | -81.16507 | 35108 ft | 423 kts | 2° |
| 2026-04-23 17:10 | 32.29429 | -81.16110 | 35103 ft | 424 kts | 2° |
| 2026-04-23 17:11 | 32.35320 | -81.15713 | 35100 ft | 423 kts | 2° |
| 2026-04-23 17:11 | 32.41204 | -81.15315 | 35098 ft | 423 kts | 2° |
| 2026-04-23 17:12 | 32.47088 | -81.14916 | 35092 ft | 422 kts | 2° |
| 2026-04-23 17:12 | 32.52943 | -81.14520 | 35086 ft | 422 kts | 2° |
| 2026-04-23 17:13 | 32.58830 | -81.14121 | 35089 ft | 422 kts | 2° |
| 2026-04-23 17:13 | 32.64674 | -81.13724 | 35089 ft | 422 kts | 2° |
| 2026-04-23 17:14 | 32.70569 | -81.13323 | 35085 ft | 422 kts | 2° |
| 2026-04-23 17:14 | 32.76425 | -81.12924 | 35086 ft | 421 kts | 2° |
| 2026-04-23 17:15 | 32.82263 | -81.12526 | 35086 ft | 421 kts | 2° |
| 2026-04-23 17:15 | 32.88135 | -81.12125 | 35081 ft | 421 kts | 2° |
| 2026-04-23 17:16 | 32.93990 | -81.11724 | 35092 ft | 422 kts | 2° |
| 2026-04-23 17:16 | 32.99820 | -81.11325 | 35089 ft | 422 kts | 2° |
| 2026-04-23 17:17 | 33.05708 | -81.10922 | 35089 ft | 422 kts | 2° |
| 2026-04-23 17:17 | 33.11563 | -81.10521 | 35084 ft | 422 kts | 2° |
| 2026-04-23 17:18 | 33.20344 | -81.09918 | 35082 ft | 421 kts | 2° |
| 2026-04-23 17:19 | 33.26206 | -81.09515 | 35078 ft | 420 kts | 2° |
| 2026-04-23 17:19 | 33.32036 | -81.09112 | 35080 ft | 420 kts | 2° |
| 2026-04-23 17:20 | 33.37858 | -81.08709 | 35077 ft | 420 kts | 2° |
| 2026-04-23 17:21 | 33.49582 | -81.07899 | 35088 ft | 421 kts | 2° |
| 2026-04-23 17:21 | 33.58322 | -81.07292 | 35089 ft | 420 kts | 2° |
| 2026-04-23 17:22 | 33.67096 | -81.06682 | 35087 ft | 420 kts | 2° |
| 2026-04-23 17:23 | 33.75832 | -81.06073 | 35087 ft | 419 kts | 2° |
| 2026-04-23 17:24 | 33.84590 | -81.05447 | 35082 ft | 420 kts | 3° |
| 2026-04-23 17:24 | 33.93259 | -81.04088 | 35090 ft | 420 kts | 7° |
| 2026-04-23 17:25 | 34.01977 | -81.02792 | 35086 ft | 419 kts | 4° |
| 2026-04-23 17:26 | 34.13569 | -81.01541 | 35082 ft | 418 kts | 4° |
| 2026-04-23 17:27 | 34.22282 | -81.00597 | 35083 ft | 418 kts | 4° |
| 2026-04-23 17:27 | 34.28090 | -80.99962 | 35081 ft | 418 kts | 4° |
| 2026-04-23 17:28 | 34.33896 | -80.99326 | 35078 ft | 419 kts | 4° |
| 2026-04-23 17:28 | 34.39693 | -80.98689 | 35080 ft | 418 kts | 4° |
| 2026-04-23 17:29 | 34.45524 | -80.98048 | 35076 ft | 418 kts | 4° |
| 2026-04-23 17:30 | 34.53241 | -80.97198 | 35072 ft | 418 kts | 3° |
| 2026-04-23 17:30 | 34.62884 | -80.96137 | 35078 ft | 418 kts | 3° |
| 2026-04-23 17:31 | 34.68686 | -80.95495 | 35085 ft | 418 kts | 3° |
| 2026-04-23 17:31 | 34.74484 | -80.94853 | 35086 ft | 418 kts | 4° |
| 2026-04-23 17:32 | 34.80260 | -80.94213 | 35078 ft | 417 kts | 3° |
| 2026-04-23 17:32 | 34.86055 | -80.93570 | 35079 ft | 417 kts | 3° |
| 2026-04-23 17:33 | 34.91851 | -80.92926 | 35080 ft | 418 kts | 4° |
| 2026-04-23 17:33 | 34.97610 | -80.92284 | 35083 ft | 417 kts | 3° |
| 2026-04-23 17:34 | 35.03434 | -80.91634 | 35079 ft | 417 kts | 3° |
| 2026-04-23 17:35 | 35.12091 | -80.90666 | 35080 ft | 416 kts | 3° |
| 2026-04-23 17:35 | 35.20736 | -80.89692 | 35081 ft | 416 kts | 4° |
| 2026-04-23 17:36 | 35.26503 | -80.88707 | 35082 ft | 417 kts | 7° |
| 2026-04-23 17:36 | 35.32240 | -80.87638 | 35086 ft | 417 kts | 6° |
| 2026-04-23 17:37 | 35.37965 | -80.86570 | 35084 ft | 417 kts | 6° |
| 2026-04-23 17:38 | 35.46546 | -80.84970 | 35084 ft | 417 kts | 7° |
| 2026-04-23 17:38 | 35.52302 | -80.83896 | 35081 ft | 416 kts | 7° |
| 2026-04-23 17:39 | 35.58024 | -80.82826 | 35074 ft | 416 kts | 7° |
| 2026-04-23 17:39 | 35.63739 | -80.81756 | 35073 ft | 416 kts | 7° |
| 2026-04-23 17:40 | 35.69473 | -80.80682 | 35076 ft | 417 kts | 7° |
| 2026-04-23 17:40 | 35.75238 | -80.79598 | 35069 ft | 416 kts | 6° |
| 2026-04-23 17:41 | 35.80941 | -80.78526 | 35066 ft | 416 kts | 6° |
| 2026-04-23 17:41 | 35.89518 | -80.76912 | 35063 ft | 415 kts | 6° |
| 2026-04-23 17:42 | 35.98100 | -80.75293 | 35051 ft | 415 kts | 7° |
| 2026-04-23 17:43 | 36.03798 | -80.74216 | 35051 ft | 416 kts | 7° |
| 2026-04-23 17:43 | 36.09489 | -80.73137 | 35051 ft | 415 kts | 6° |
| 2026-04-23 17:44 | 36.15227 | -80.72051 | 35052 ft | 415 kts | 6° |
| 2026-04-23 17:44 | 36.23752 | -80.70436 | 35054 ft | 415 kts | 6° |
| 2026-04-23 17:45 | 36.32305 | -80.68809 | 35058 ft | 415 kts | 6° |
| 2026-04-23 17:46 | 36.40881 | -80.67173 | 35069 ft | 415 kts | 7° |
| 2026-04-23 17:46 | 36.46560 | -80.66085 | 35075 ft | 414 kts | 7° |
| 2026-04-23 17:47 | 36.52266 | -80.64991 | 35076 ft | 414 kts | 6° |
| 2026-04-23 17:48 | 36.60791 | -80.63354 | 35081 ft | 414 kts | 6° |
| 2026-04-23 17:48 | 36.66478 | -80.62261 | 35091 ft | 414 kts | 6° |
| 2026-04-23 17:49 | 36.72193 | -80.61162 | 35098 ft | 415 kts | 6° |
| 2026-04-23 17:49 | 36.77889 | -80.60065 | 35096 ft | 415 kts | 6° |
| 2026-04-23 17:50 | 36.83596 | -80.58962 | 35098 ft | 414 kts | 6° |
| 2026-04-23 17:50 | 36.92097 | -80.57318 | 35087 ft | 414 kts | 6° |
| 2026-04-23 17:51 | 36.97779 | -80.56216 | 35091 ft | 414 kts | 6° |
| 2026-04-23 17:52 | 37.06334 | -80.54554 | 35098 ft | 414 kts | 6° |
| 2026-04-23 17:52 | 37.14887 | -80.52893 | 35112 ft | 413 kts | 6° |
| 2026-04-23 17:53 | 37.23434 | -80.51230 | 35123 ft | 413 kts | 6° |
| 2026-04-23 17:54 | 37.29107 | -80.50124 | 35127 ft | 413 kts | 6° |
| 2026-04-23 17:54 | 37.37624 | -80.48457 | 35109 ft | 412 kts | 6° |
| 2026-04-23 17:55 | 37.46126 | -80.46787 | 35093 ft | 412 kts | 6° |
| 2026-04-23 17:56 | 37.51767 | -80.45677 | 35090 ft | 412 kts | 6° |
| 2026-04-23 17:56 | 37.60261 | -80.44004 | 35086 ft | 412 kts | 6° |
| 2026-04-23 17:57 | 37.65940 | -80.42883 | 35091 ft | 411 kts | 6° |
| 2026-04-23 17:58 | 37.74418 | -80.41206 | 35092 ft | 411 kts | 6° |
| 2026-04-23 17:58 | 37.80079 | -80.40084 | 35097 ft | 411 kts | 6° |
| 2026-04-23 17:59 | 37.85699 | -80.38968 | 35102 ft | 410 kts | 6° |
| 2026-04-23 17:59 | 37.91363 | -80.37840 | 35104 ft | 410 kts | 6° |
| 2026-04-23 18:00 | 37.96973 | -80.36723 | 35103 ft | 409 kts | 6° |
| 2026-04-23 18:00 | 38.02573 | -80.35606 | 35101 ft | 409 kts | 6° |
| 2026-04-23 18:01 | 38.08212 | -80.34470 | 35100 ft | 410 kts | 7° |
| 2026-04-23 18:01 | 38.13856 | -80.33318 | 35095 ft | 410 kts | 7° |
| 2026-04-23 18:02 | 38.18533 | -80.32377 | 35094 ft | 409 kts | 7° |
| 2026-04-23 18:02 | 38.25103 | -80.31056 | 35109 ft | 410 kts | 6° |
| 2026-04-23 18:03 | 38.30707 | -80.29744 | 35123 ft | 411 kts | 11° |
| 2026-04-23 18:03 | 38.36263 | -80.27881 | 35117 ft | 412 kts | 12° |
| 2026-04-23 18:04 | 38.41806 | -80.25951 | 35116 ft | 412 kts | 12° |
| 2026-04-23 18:04 | 38.47308 | -80.24035 | 35104 ft | 411 kts | 12° |
| 2026-04-23 18:05 | 38.52843 | -80.22109 | 35100 ft | 411 kts | 12° |
| 2026-04-23 18:05 | 38.58347 | -80.20189 | 35104 ft | 412 kts | 12° |
| 2026-04-23 18:06 | 38.63874 | -80.18258 | 35093 ft | 411 kts | 12° |
| 2026-04-23 18:06 | 38.69362 | -80.16341 | 35090 ft | 411 kts | 12° |
| 2026-04-23 18:07 | 38.74855 | -80.14416 | 35093 ft | 409 kts | 12° |
| 2026-04-23 18:07 | 38.80345 | -80.12492 | 35078 ft | 409 kts | 12° |
| 2026-04-23 18:08 | 38.84926 | -80.10883 | 35089 ft | 410 kts | 12° |
| 2026-04-23 18:08 | 38.91354 | -80.08669 | 35076 ft | 408 kts | 10° |